Terminal Aerodrome Forecast
Issued by NWS Wilmington, NC

Home | Current Version | Previous Version | Text Only | Print | Product List | Glossary On
Versions: 1 2 3 4 5 6 7 8 9 10 11 12 13 14 15 16 17 18 19 20 21 22
184
FTUS42 KILM 030520
TAFILM
TAF
KILM 030520Z 0306/0406 20009KT P6SM VCSH SCT015 BKN120 OVC300
      TEMPO 0312/0315 P6SM TSRA BKN015 BKN050CB
     FM031500 24010G18KT P6SM VCTS SCT025 BKN050CB
     FM032200 22011KT P6SM -RA BKN015 OVC050 PROB30 0400/0403 P6SM
      TS BKN050CB
     FM040500 22008KT P6SM OVC050=

USA.gov is the U.S. government's official web portal to all federal, state and local government web resources and services.